sensor_id;sensor_type;location;lat;lon;timestamp;P1;durP1;ratioP1;P2;durP2;ratioP2
75854;SDS011;64502;59.976;30.316;2023-06-10T00:01:32;2.63;;;0.40;;
75854;SDS011;64502;59.976;30.316;2023-06-10T00:03:59;2.83;;;0.70;;
75854;SDS011;64502;59.976;30.316;2023-06-10T00:06:24;2.65;;;0.38;;
75854;SDS011;64502;59.976;30.316;2023-06-10T00:08:50;3.17;;;0.60;;
75854;SDS011;64502;59.976;30.316;2023-06-10T00:11:16;2.75;;;0.50;;
75854;SDS011;64502;59.976;30.316;2023-06-10T00:13:42;2.50;;;0.60;;
75854;SDS011;64502;59.976;30.316;2023-06-10T00:16:07;2.05;;;0.63;;
75854;SDS011;64502;59.976;30.316;2023-06-10T00:18:33;3.38;;;0.50;;
75854;SDS011;64502;59.976;30.316;2023-06-10T00:21:02;2.22;;;0.47;;
75854;SDS011;64502;59.976;30.316;2023-06-10T00:23:32;2.17;;;0.60;;
75854;SDS011;64502;59.976;30.316;2023-06-10T00:26:03;2.70;;;0.60;;
75854;SDS011;64502;59.976;30.316;2023-06-10T00:28:29;1.35;;;0.30;;
75854;SDS011;64502;59.976;30.316;2023-06-10T00:30:55;5.45;;;0.47;;
75854;SDS011;64502;59.976;30.316;2023-06-10T00:33:20;6.25;;;0.50;;
75854;SDS011;64502;59.976;30.316;2023-06-10T00:35:46;1.63;;;0.30;;
75854;SDS011;64502;59.976;30.316;2023-06-10T00:38:13;1.98;;;0.50;;
75854;SDS011;64502;59.976;30.316;2023-06-10T00:40:40;2.10;;;0.45;;
75854;SDS011;64502;59.976;30.316;2023-06-10T00:43:08;2.88;;;0.40;;
75854;SDS011;64502;59.976;30.316;2023-06-10T00:45:34;1.60;;;0.30;;
75854;SDS011;64502;59.976;30.316;2023-06-10T00:48:00;2.35;;;0.60;;
75854;SDS011;64502;59.976;30.316;2023-06-10T00:50:26;2.47;;;0.50;;
75854;SDS011;64502;59.976;30.316;2023-06-10T00:52:53;1.83;;;0.60;;
75854;SDS011;64502;59.976;30.316;2023-06-10T00:55:19;2.45;;;0.90;;
75854;SDS011;64502;59.976;30.316;2023-06-10T00:57:45;2.45;;;0.80;;
75854;SDS011;64502;59.976;30.316;2023-06-10T01:00:13;5.20;;;0.82;;
75854;SDS011;64502;59.976;30.316;2023-06-10T01:02:40;2.28;;;0.35;;
75854;SDS011;64502;59.976;30.316;2023-06-10T01:05:06;3.15;;;0.70;;
75854;SDS011;64502;59.976;30.316;2023-06-10T01:07:36;2.60;;;0.77;;
75854;SDS011;64502;59.976;30.316;2023-06-10T01:10:07;4.85;;;1.00;;
75854;SDS011;64502;59.976;30.316;2023-06-10T01:15:36;2.55;;;0.70;;
75854;SDS011;64502;59.976;30.316;2023-06-10T01:18:06;2.03;;;0.73;;
75854;SDS011;64502;59.976;30.316;2023-06-10T01:20:40;1.42;;;0.32;;
75854;SDS011;64502;59.976;30.316;2023-06-10T01:23:08;3.05;;;0.85;;
75854;SDS011;64502;59.976;30.316;2023-06-10T01:25:39;2.58;;;0.50;;
75854;SDS011;64502;59.976;30.316;2023-06-10T01:31:18;1.50;;;0.60;;
75854;SDS011;64502;59.976;30.316;2023-06-10T01:33:59;2.33;;;0.38;;
75854;SDS011;64502;59.976;30.316;2023-06-10T01:36:25;2.63;;;0.55;;
75854;SDS011;64502;59.976;30.316;2023-06-10T01:38:52;4.05;;;0.50;;
75854;SDS011;64502;59.976;30.316;2023-06-10T01:41:18;3.28;;;0.68;;
75854;SDS011;64502;59.976;30.316;2023-06-10T01:43:46;2.80;;;0.50;;
75854;SDS011;64502;59.976;30.316;2023-06-10T01:46:12;2.53;;;0.52;;
75854;SDS011;64502;59.976;30.316;2023-06-10T01:48:39;2.05;;;0.50;;
75854;SDS011;64502;59.976;30.316;2023-06-10T01:51:06;2.80;;;0.35;;
75854;SDS011;64502;59.976;30.316;2023-06-10T01:53:31;2.75;;;0.63;;
75854;SDS011;64502;59.976;30.316;2023-06-10T01:55:57;2.92;;;1.17;;
75854;SDS011;64502;59.976;30.316;2023-06-10T01:58:22;4.55;;;1.00;;
75854;SDS011;64502;59.976;30.316;2023-06-10T02:00:48;1.60;;;0.40;;
75854;SDS011;64502;59.976;30.316;2023-06-10T02:03:13;3.65;;;0.85;;
75854;SDS011;64502;59.976;30.316;2023-06-10T02:05:39;1.63;;;0.50;;
75854;SDS011;64502;59.976;30.316;2023-06-10T02:08:05;3.42;;;1.13;;
75854;SDS011;64502;59.976;30.316;2023-06-10T02:10:30;2.58;;;0.40;;
75854;SDS011;64502;59.976;30.316;2023-06-10T02:12:56;2.97;;;0.73;;
75854;SDS011;64502;59.976;30.316;2023-06-10T02:15:21;2.55;;;0.60;;
75854;SDS011;64502;59.976;30.316;2023-06-10T02:17:47;2.45;;;0.77;;
75854;SDS011;64502;59.976;30.316;2023-06-10T02:20:14;1.80;;;0.57;;
75854;SDS011;64502;59.976;30.316;2023-06-10T02:22:39;2.33;;;0.50;;
75854;SDS011;64502;59.976;30.316;2023-06-10T02:25:05;2.88;;;0.77;;
75854;SDS011;64502;59.976;30.316;2023-06-10T02:27:31;1.63;;;0.43;;
75854;SDS011;64502;59.976;30.316;2023-06-10T02:29:57;2.97;;;0.65;;
75854;SDS011;64502;59.976;30.316;2023-06-10T02:32:23;4.20;;;0.60;;
75854;SDS011;64502;59.976;30.316;2023-06-10T02:34:48;2.17;;;0.38;;
75854;SDS011;64502;59.976;30.316;2023-06-10T02:37:14;2.35;;;0.70;;
75854;SDS011;64502;59.976;30.316;2023-06-10T02:39:40;2.30;;;0.50;;
75854;SDS011;64502;59.976;30.316;2023-06-10T02:42:06;1.58;;;0.75;;
75854;SDS011;64502;59.976;30.316;2023-06-10T02:44:32;1.90;;;0.68;;
75854;SDS011;64502;59.976;30.316;2023-06-10T02:46:58;2.50;;;0.85;;
75854;SDS011;64502;59.976;30.316;2023-06-10T02:49:23;2.95;;;0.55;;
75854;SDS011;64502;59.976;30.316;2023-06-10T02:51:50;3.60;;;0.90;;
75854;SDS011;64502;59.976;30.316;2023-06-10T02:54:21;2.53;;;0.50;;
75854;SDS011;64502;59.976;30.316;2023-06-10T02:56:48;2.47;;;0.70;;
75854;SDS011;64502;59.976;30.316;2023-06-10T02:59:13;2.47;;;0.55;;
75854;SDS011;64502;59.976;30.316;2023-06-10T03:01:39;5.38;;;1.38;;
75854;SDS011;64502;59.976;30.316;2023-06-10T03:04:05;3.83;;;0.80;;
75854;SDS011;64502;59.976;30.316;2023-06-10T03:06:31;2.05;;;0.95;;
75854;SDS011;64502;59.976;30.316;2023-06-10T03:09:00;2.08;;;0.80;;
75854;SDS011;64502;59.976;30.316;2023-06-10T03:11:29;4.65;;;0.70;;
75854;SDS011;64502;59.976;30.316;2023-06-10T03:13:55;2.92;;;0.57;;
75854;SDS011;64502;59.976;30.316;2023-06-10T03:16:22;3.45;;;0.70;;
75854;SDS011;64502;59.976;30.316;2023-06-10T03:18:48;2.72;;;0.63;;
75854;SDS011;64502;59.976;30.316;2023-06-10T03:21:14;3.42;;;0.88;;
75854;SDS011;64502;59.976;30.316;2023-06-10T03:23:39;2.08;;;0.50;;
75854;SDS011;64502;59.976;30.316;2023-06-10T03:26:05;3.10;;;0.80;;
75854;SDS011;64502;59.976;30.316;2023-06-10T03:28:30;2.25;;;0.70;;
75854;SDS011;64502;59.976;30.316;2023-06-10T03:30:56;3.45;;;0.57;;
75854;SDS011;64502;59.976;30.316;2023-06-10T03:33:22;4.15;;;0.73;;
75854;SDS011;64502;59.976;30.316;2023-06-10T03:35:47;4.03;;;0.75;;
75854;SDS011;64502;59.976;30.316;2023-06-10T03:38:13;2.78;;;0.65;;
75854;SDS011;64502;59.976;30.316;2023-06-10T03:40:38;1.90;;;0.52;;
75854;SDS011;64502;59.976;30.316;2023-06-10T03:43:04;1.15;;;0.40;;
75854;SDS011;64502;59.976;30.316;2023-06-10T03:45:29;3.83;;;0.57;;
75854;SDS011;64502;59.976;30.316;2023-06-10T03:47:55;3.60;;;0.70;;
75854;SDS011;64502;59.976;30.316;2023-06-10T03:50:21;6.45;;;0.95;;
75854;SDS011;64502;59.976;30.316;2023-06-10T03:52:48;1.83;;;0.30;;
75854;SDS011;64502;59.976;30.316;2023-06-10T03:55:14;2.20;;;0.80;;
75854;SDS011;64502;59.976;30.316;2023-06-10T03:57:39;2.47;;;0.55;;
75854;SDS011;64502;59.976;30.316;2023-06-10T04:00:06;1.45;;;0.38;;
75854;SDS011;64502;59.976;30.316;2023-06-10T04:02:36;2.33;;;0.60;;
75854;SDS011;64502;59.976;30.316;2023-06-10T04:05:02;4.13;;;0.40;;
75854;SDS011;64502;59.976;30.316;2023-06-10T04:07:27;1.95;;;0.40;;
75854;SDS011;64502;59.976;30.316;2023-06-10T04:09:53;3.60;;;0.70;;
75854;SDS011;64502;59.976;30.316;2023-06-10T04:12:19;2.78;;;0.57;;
75854;SDS011;64502;59.976;30.316;2023-06-10T04:14:44;1.92;;;0.40;;
75854;SDS011;64502;59.976;30.316;2023-06-10T04:17:10;1.83;;;0.57;;
75854;SDS011;64502;59.976;30.316;2023-06-10T04:19:35;2.75;;;0.70;;
75854;SDS011;64502;59.976;30.316;2023-06-10T04:22:01;2.03;;;0.55;;
75854;SDS011;64502;59.976;30.316;2023-06-10T04:24:30;2.50;;;0.50;;
75854;SDS011;64502;59.976;30.316;2023-06-10T04:26:55;3.97;;;0.50;;
75854;SDS011;64502;59.976;30.316;2023-06-10T04:29:21;2.08;;;0.65;;
75854;SDS011;64502;59.976;30.316;2023-06-10T04:31:46;1.45;;;0.35;;
75854;SDS011;64502;59.976;30.316;2023-06-10T04:34:12;1.83;;;0.77;;
75854;SDS011;64502;59.976;30.316;2023-06-10T04:36:38;1.85;;;0.38;;
75854;SDS011;64502;59.976;30.316;2023-06-10T04:39:04;2.60;;;0.70;;
75854;SDS011;64502;59.976;30.316;2023-06-10T04:41:30;1.77;;;0.38;;
75854;SDS011;64502;59.976;30.316;2023-06-10T04:43:56;2.40;;;0.50;;
75854;SDS011;64502;59.976;30.316;2023-06-10T04:46:22;2.15;;;0.55;;
75854;SDS011;64502;59.976;30.316;2023-06-10T04:48:49;3.13;;;0.38;;
75854;SDS011;64502;59.976;30.316;2023-06-10T04:51:14;2.25;;;0.30;;
75854;SDS011;64502;59.976;30.316;2023-06-10T04:53:40;1.90;;;0.93;;
75854;SDS011;64502;59.976;30.316;2023-06-10T04:56:05;3.40;;;0.60;;
75854;SDS011;64502;59.976;30.316;2023-06-10T04:58:32;1.55;;;0.30;;
75854;SDS011;64502;59.976;30.316;2023-06-10T05:00:58;2.42;;;0.40;;
75854;SDS011;64502;59.976;30.316;2023-06-10T05:03:24;1.48;;;0.50;;
75854;SDS011;64502;59.976;30.316;2023-06-10T05:05:50;1.08;;;0.20;;
75854;SDS011;64502;59.976;30.316;2023-06-10T05:08:16;3.63;;;0.60;;
75854;SDS011;64502;59.976;30.316;2023-06-10T05:10:41;1.67;;;0.38;;
75854;SDS011;64502;59.976;30.316;2023-06-10T05:13:07;1.13;;;0.25;;
75854;SDS011;64502;59.976;30.316;2023-06-10T05:15:32;1.48;;;0.47;;
75854;SDS011;64502;59.976;30.316;2023-06-10T05:17:58;2.55;;;0.28;;
75854;SDS011;64502;59.976;30.316;2023-06-10T05:20:24;1.25;;;0.10;;
75854;SDS011;64502;59.976;30.316;2023-06-10T05:22:50;1.35;;;0.22;;
75854;SDS011;64502;59.976;30.316;2023-06-10T05:25:16;2.05;;;0.10;;
75854;SDS011;64502;59.976;30.316;2023-06-10T05:27:41;1.17;;;0.28;;
75854;SDS011;64502;59.976;30.316;2023-06-10T05:30:08;0.90;;;0.20;;
75854;SDS011;64502;59.976;30.316;2023-06-10T05:32:35;5.38;;;0.95;;
75854;SDS011;64502;59.976;30.316;2023-06-10T05:35:00;1.55;;;0.60;;
75854;SDS011;64502;59.976;30.316;2023-06-10T05:37:26;2.97;;;0.25;;
75854;SDS011;64502;59.976;30.316;2023-06-10T05:39:52;2.17;;;0.35;;
75854;SDS011;64502;59.976;30.316;2023-06-10T05:42:17;1.67;;;0.20;;
75854;SDS011;64502;59.976;30.316;2023-06-10T05:44:43;1.58;;;0.20;;
75854;SDS011;64502;59.976;30.316;2023-06-10T05:47:08;2.28;;;0.30;;
75854;SDS011;64502;59.976;30.316;2023-06-10T05:49:34;1.10;;;0.30;;
75854;SDS011;64502;59.976;30.316;2023-06-10T05:52:00;1.33;;;0.20;;
75854;SDS011;64502;59.976;30.316;2023-06-10T05:54:25;2.47;;;0.30;;
75854;SDS011;64502;59.976;30.316;2023-06-10T05:56:52;3.30;;;0.30;;
75854;SDS011;64502;59.976;30.316;2023-06-10T05:59:17;0.90;;;0.13;;
75854;SDS011;64502;59.976;30.316;2023-06-10T06:01:43;1.02;;;0.22;;
75854;SDS011;64502;59.976;30.316;2023-06-10T06:04:08;2.08;;;0.35;;
75854;SDS011;64502;59.976;30.316;2023-06-10T06:06:35;1.42;;;0.38;;
75854;SDS011;64502;59.976;30.316;2023-06-10T06:09:01;2.85;;;0.30;;
75854;SDS011;64502;59.976;30.316;2023-06-10T06:11:26;4.03;;;0.70;;
75854;SDS011;64502;59.976;30.316;2023-06-10T06:13:52;3.17;;;0.60;;
75854;SDS011;64502;59.976;30.316;2023-06-10T06:16:17;3.63;;;0.63;;
75854;SDS011;64502;59.976;30.316;2023-06-10T06:18:43;0.98;;;0.10;;
75854;SDS011;64502;59.976;30.316;2023-06-10T06:21:09;1.05;;;0.30;;
75854;SDS011;64502;59.976;30.316;2023-06-10T06:23:34;2.08;;;0.47;;
75854;SDS011;64502;59.976;30.316;2023-06-10T06:26:00;0.82;;;0.20;;
75854;SDS011;64502;59.976;30.316;2023-06-10T06:28:26;3.33;;;0.95;;
75854;SDS011;64502;59.976;30.316;2023-06-10T06:30:55;1.17;;;0.30;;
75854;SDS011;64502;59.976;30.316;2023-06-10T06:33:21;2.03;;;0.63;;
75854;SDS011;64502;59.976;30.316;2023-06-10T06:35:46;1.27;;;0.40;;
75854;SDS011;64502;59.976;30.316;2023-06-10T06:38:12;1.52;;;0.28;;
75854;SDS011;64502;59.976;30.316;2023-06-10T06:40:37;1.88;;;0.50;;
75854;SDS011;64502;59.976;30.316;2023-06-10T06:43:03;2.83;;;0.43;;
75854;SDS011;64502;59.976;30.316;2023-06-10T06:45:29;1.48;;;0.40;;
75854;SDS011;64502;59.976;30.316;2023-06-10T06:47:55;2.30;;;0.85;;
75854;SDS011;64502;59.976;30.316;2023-06-10T06:50:21;1.13;;;0.43;;
75854;SDS011;64502;59.976;30.316;2023-06-10T06:52:46;1.80;;;0.50;;
75854;SDS011;64502;59.976;30.316;2023-06-10T06:55:12;1.92;;;0.80;;
75854;SDS011;64502;59.976;30.316;2023-06-10T06:57:38;3.05;;;0.50;;
75854;SDS011;64502;59.976;30.316;2023-06-10T07:00:03;1.95;;;0.60;;
75854;SDS011;64502;59.976;30.316;2023-06-10T07:02:30;2.70;;;0.68;;
75854;SDS011;64502;59.976;30.316;2023-06-10T07:04:57;4.35;;;0.35;;
75854;SDS011;64502;59.976;30.316;2023-06-10T07:07:23;2.00;;;0.60;;
75854;SDS011;64502;59.976;30.316;2023-06-10T07:09:49;2.92;;;0.68;;
75854;SDS011;64502;59.976;30.316;2023-06-10T07:12:15;3.22;;;0.80;;
75854;SDS011;64502;59.976;30.316;2023-06-10T07:14:40;1.40;;;0.80;;
75854;SDS011;64502;59.976;30.316;2023-06-10T07:17:06;1.88;;;0.32;;
75854;SDS011;64502;59.976;30.316;2023-06-10T07:19:32;1.50;;;0.50;;
75854;SDS011;64502;59.976;30.316;2023-06-10T07:21:57;3.17;;;0.30;;
75854;SDS011;64502;59.976;30.316;2023-06-10T07:24:23;2.65;;;0.47;;
75854;SDS011;64502;59.976;30.316;2023-06-10T07:26:48;6.78;;;0.68;;
75854;SDS011;64502;59.976;30.316;2023-06-10T07:29:14;1.35;;;0.25;;
75854;SDS011;64502;59.976;30.316;2023-06-10T07:31:40;1.85;;;0.32;;
75854;SDS011;64502;59.976;30.316;2023-06-10T07:34:06;1.77;;;0.22;;
75854;SDS011;64502;59.976;30.316;2023-06-10T07:36:32;1.02;;;0.30;;
75854;SDS011;64502;59.976;30.316;2023-06-10T07:38:57;2.17;;;0.52;;
75854;SDS011;64502;59.976;30.316;2023-06-10T07:41:23;3.30;;;0.60;;
75854;SDS011;64502;59.976;30.316;2023-06-10T07:43:50;2.15;;;0.50;;
75854;SDS011;64502;59.976;30.316;2023-06-10T07:46:20;1.92;;;0.68;;
75854;SDS011;64502;59.976;30.316;2023-06-10T07:48:46;1.90;;;0.45;;
75854;SDS011;64502;59.976;30.316;2023-06-10T07:51:12;1.63;;;0.52;;
75854;SDS011;64502;59.976;30.316;2023-06-10T07:53:38;1.35;;;0.40;;
75854;SDS011;64502;59.976;30.316;2023-06-10T07:56:03;1.70;;;0.63;;
75854;SDS011;64502;59.976;30.316;2023-06-10T07:58:29;2.80;;;0.40;;
75854;SDS011;64502;59.976;30.316;2023-06-10T08:00:54;1.85;;;0.30;;
75854;SDS011;64502;59.976;30.316;2023-06-10T08:03:20;1.42;;;0.35;;
75854;SDS011;64502;59.976;30.316;2023-06-10T08:05:45;1.73;;;0.52;;
75854;SDS011;64502;59.976;30.316;2023-06-10T08:08:11;1.63;;;0.50;;
75854;SDS011;64502;59.976;30.316;2023-06-10T08:10:36;3.53;;;0.55;;
75854;SDS011;64502;59.976;30.316;2023-06-10T08:13:02;3.75;;;0.82;;
75854;SDS011;64502;59.976;30.316;2023-06-10T08:15:27;2.13;;;0.80;;
75854;SDS011;64502;59.976;30.316;2023-06-10T08:17:53;1.98;;;0.75;;
75854;SDS011;64502;59.976;30.316;2023-06-10T08:20:18;1.48;;;0.55;;
75854;SDS011;64502;59.976;30.316;2023-06-10T08:22:44;3.70;;;0.65;;
75854;SDS011;64502;59.976;30.316;2023-06-10T08:25:09;4.68;;;0.60;;
75854;SDS011;64502;59.976;30.316;2023-06-10T08:27:35;1.50;;;0.50;;
75854;SDS011;64502;59.976;30.316;2023-06-10T08:30:00;2.92;;;0.70;;
75854;SDS011;64502;59.976;30.316;2023-06-10T08:32:26;1.98;;;0.85;;
75854;SDS011;64502;59.976;30.316;2023-06-10T08:34:52;2.00;;;0.40;;
75854;SDS011;64502;59.976;30.316;2023-06-10T08:37:17;3.20;;;0.63;;
75854;SDS011;64502;59.976;30.316;2023-06-10T08:39:43;6.07;;;0.80;;
75854;SDS011;64502;59.976;30.316;2023-06-10T08:42:19;8.48;;;0.80;;
75854;SDS011;64502;59.976;30.316;2023-06-10T08:44:54;10.93;;;0.95;;
75854;SDS011;64502;59.976;30.316;2023-06-10T08:47:22;4.00;;;0.95;;
75854;SDS011;64502;59.976;30.316;2023-06-10T08:49:48;5.75;;;0.35;;
75854;SDS011;64502;59.976;30.316;2023-06-10T08:52:15;2.60;;;0.30;;
75854;SDS011;64502;59.976;30.316;2023-06-10T08:54:56;6.15;;;0.70;;
75854;SDS011;64502;59.976;30.316;2023-06-10T08:57:24;2.88;;;0.82;;
75854;SDS011;64502;59.976;30.316;2023-06-10T08:59:52;2.22;;;0.45;;
75854;SDS011;64502;59.976;30.316;2023-06-10T09:02:20;2.65;;;0.50;;
75854;SDS011;64502;59.976;30.316;2023-06-10T09:04:46;2.10;;;0.60;;
75854;SDS011;64502;59.976;30.316;2023-06-10T09:07:13;1.73;;;0.40;;
75854;SDS011;64502;59.976;30.316;2023-06-10T09:09:42;3.22;;;0.40;;
75854;SDS011;64502;59.976;30.316;2023-06-10T09:12:08;2.35;;;0.52;;
75854;SDS011;64502;59.976;30.316;2023-06-10T09:14:34;4.18;;;1.38;;
75854;SDS011;64502;59.976;30.316;2023-06-10T09:17:00;2.22;;;0.50;;
75854;SDS011;64502;59.976;30.316;2023-06-10T09:19:26;2.47;;;0.30;;
75854;SDS011;64502;59.976;30.316;2023-06-10T09:21:53;3.40;;;0.63;;
75854;SDS011;64502;59.976;30.316;2023-06-10T09:24:19;1.23;;;0.50;;
75854;SDS011;64502;59.976;30.316;2023-06-10T09:26:47;3.13;;;1.95;;
75854;SDS011;64502;59.976;30.316;2023-06-10T09:29:12;2.33;;;0.30;;
75854;SDS011;64502;59.976;30.316;2023-06-10T09:31:39;2.00;;;0.60;;
75854;SDS011;64502;59.976;30.316;2023-06-10T09:34:15;2.17;;;0.50;;
75854;SDS011;64502;59.976;30.316;2023-06-10T09:36:42;1.42;;;0.22;;
75854;SDS011;64502;59.976;30.316;2023-06-10T09:39:17;1.85;;;0.40;;
75854;SDS011;64502;59.976;30.316;2023-06-10T09:41:44;1.80;;;0.28;;
75854;SDS011;64502;59.976;30.316;2023-06-10T09:44:11;3.00;;;0.32;;
75854;SDS011;64502;59.976;30.316;2023-06-10T09:46:41;1.08;;;0.28;;
75854;SDS011;64502;59.976;30.316;2023-06-10T09:49:07;3.78;;;0.70;;
75854;SDS011;64502;59.976;30.316;2023-06-10T09:51:33;1.55;;;0.60;;
75854;SDS011;64502;59.976;30.316;2023-06-10T09:53:59;1.85;;;0.70;;
75854;SDS011;64502;59.976;30.316;2023-06-10T09:56:37;4.22;;;0.63;;
75854;SDS011;64502;59.976;30.316;2023-06-10T09:59:05;1.92;;;0.55;;
75854;SDS011;64502;59.976;30.316;2023-06-10T10:01:31;1.77;;;0.20;;
75854;SDS011;64502;59.976;30.316;2023-06-10T10:03:58;2.83;;;0.20;;
75854;SDS011;64502;59.976;30.316;2023-06-10T10:06:24;1.25;;;0.35;;
75854;SDS011;64502;59.976;30.316;2023-06-10T10:08:50;1.60;;;0.25;;
75854;SDS011;64502;59.976;30.316;2023-06-10T10:11:17;1.83;;;0.43;;
75854;SDS011;64502;59.976;30.316;2023-06-10T10:13:48;2.35;;;0.43;;
75854;SDS011;64502;59.976;30.316;2023-06-10T10:16:36;1.33;;;0.52;;
75854;SDS011;64502;59.976;30.316;2023-06-10T10:19:11;2.22;;;0.50;;
75854;SDS011;64502;59.976;30.316;2023-06-10T10:21:46;1.35;;;0.43;;
75854;SDS011;64502;59.976;30.316;2023-06-10T10:24:18;3.97;;;1.00;;
75854;SDS011;64502;59.976;30.316;2023-06-10T10:26:46;2.92;;;0.93;;
75854;SDS011;64502;59.976;30.316;2023-06-10T10:29:16;2.05;;;0.43;;
75854;SDS011;64502;59.976;30.316;2023-06-10T10:31:50;5.35;;;0.32;;
75854;SDS011;64502;59.976;30.316;2023-06-10T10:34:30;2.90;;;0.38;;
75854;SDS011;64502;59.976;30.316;2023-06-10T10:37:02;3.70;;;0.40;;
75854;SDS011;64502;59.976;30.316;2023-06-10T10:39:28;1.42;;;0.70;;
75854;SDS011;64502;59.976;30.316;2023-06-10T10:41:55;2.28;;;0.60;;
75854;SDS011;64502;59.976;30.316;2023-06-10T10:44:22;4.97;;;0.60;;
75854;SDS011;64502;59.976;30.316;2023-06-10T10:46:49;1.73;;;0.50;;
75854;SDS011;64502;59.976;30.316;2023-06-10T10:49:15;2.25;;;0.22;;
75854;SDS011;64502;59.976;30.316;2023-06-10T10:51:59;2.78;;;0.38;;
75854;SDS011;64502;59.976;30.316;2023-06-10T10:54:35;1.95;;;0.32;;
75854;SDS011;64502;59.976;30.316;2023-06-10T11:05:05;5.35;;;1.15;;
75854;SDS011;64502;59.976;30.316;2023-06-10T11:07:32;2.45;;;0.98;;
75854;SDS011;64502;59.976;30.316;2023-06-10T11:09:59;2.40;;;1.00;;
75854;SDS011;64502;59.976;30.316;2023-06-10T11:15:05;1.67;;;0.38;;
75854;SDS011;64502;59.976;30.316;2023-06-10T11:17:31;1.77;;;0.55;;
75854;SDS011;64502;59.976;30.316;2023-06-10T11:19:58;0.88;;;0.30;;
75854;SDS011;64502;59.976;30.316;2023-06-10T11:22:24;2.45;;;0.60;;
75854;SDS011;64502;59.976;30.316;2023-06-10T11:24:49;6.32;;;0.40;;
75854;SDS011;64502;59.976;30.316;2023-06-10T11:27:20;2.65;;;0.43;;
75854;SDS011;64502;59.976;30.316;2023-06-10T11:32:31;2.13;;;0.60;;
75854;SDS011;64502;59.976;30.316;2023-06-10T11:34:59;1.55;;;0.43;;
75854;SDS011;64502;59.976;30.316;2023-06-10T11:37:25;1.33;;;0.35;;
75854;SDS011;64502;59.976;30.316;2023-06-10T11:39:54;6.25;;;0.88;;
75854;SDS011;64502;59.976;30.316;2023-06-10T11:42:21;2.45;;;0.30;;
75854;SDS011;64502;59.976;30.316;2023-06-10T11:44:51;5.55;;;0.60;;
75854;SDS011;64502;59.976;30.316;2023-06-10T11:47:18;4.60;;;0.57;;
75854;SDS011;64502;59.976;30.316;2023-06-10T11:49:44;3.05;;;0.40;;
75854;SDS011;64502;59.976;30.316;2023-06-10T11:52:10;2.28;;;0.20;;
75854;SDS011;64502;59.976;30.316;2023-06-10T11:54:36;2.67;;;0.30;;
75854;SDS011;64502;59.976;30.316;2023-06-10T11:57:03;1.98;;;0.50;;
75854;SDS011;64502;59.976;30.316;2023-06-10T11:59:31;1.55;;;0.60;;
75854;SDS011;64502;59.976;30.316;2023-06-10T12:01:57;1.70;;;0.50;;
75854;SDS011;64502;59.976;30.316;2023-06-10T12:04:23;1.55;;;0.52;;
75854;SDS011;64502;59.976;30.316;2023-06-10T12:06:51;2.53;;;0.52;;
75854;SDS011;64502;59.976;30.316;2023-06-10T12:09:27;1.10;;;0.43;;
75854;SDS011;64502;59.976;30.316;2023-06-10T12:17:22;3.33;;;0.82;;
75854;SDS011;64502;59.976;30.316;2023-06-10T12:19:58;3.03;;;0.65;;
75854;SDS011;64502;59.976;30.316;2023-06-10T12:22:24;1.65;;;0.32;;
75854;SDS011;64502;59.976;30.316;2023-06-10T12:27:30;2.50;;;0.30;;
75854;SDS011;64502;59.976;30.316;2023-06-10T12:29:57;2.60;;;0.50;;
75854;SDS011;64502;59.976;30.316;2023-06-10T12:32:43;1.45;;;0.38;;
75854;SDS011;64502;59.976;30.316;2023-06-10T12:35:16;2.58;;;0.47;;
75854;SDS011;64502;59.976;30.316;2023-06-10T12:37:53;1.42;;;0.50;;
75854;SDS011;64502;59.976;30.316;2023-06-10T12:40:28;1.10;;;0.40;;
75854;SDS011;64502;59.976;30.316;2023-06-10T12:42:56;5.07;;;0.75;;
75854;SDS011;64502;59.976;30.316;2023-06-10T12:48:05;1.55;;;0.60;;
75854;SDS011;64502;59.976;30.316;2023-06-10T12:50:40;3.15;;;0.82;;
75854;SDS011;64502;59.976;30.316;2023-06-10T12:53:07;1.77;;;0.57;;
75854;SDS011;64502;59.976;30.316;2023-06-10T12:55:33;2.83;;;0.70;;
75854;SDS011;64502;59.976;30.316;2023-06-10T12:57:59;1.80;;;0.30;;
75854;SDS011;64502;59.976;30.316;2023-06-10T13:00:26;1.80;;;0.70;;
75854;SDS011;64502;59.976;30.316;2023-06-10T13:05:20;2.28;;;0.52;;
75854;SDS011;64502;59.976;30.316;2023-06-10T13:07:46;2.22;;;1.15;;
75854;SDS011;64502;59.976;30.316;2023-06-10T13:10:13;3.28;;;0.90;;
75854;SDS011;64502;59.976;30.316;2023-06-10T13:12:39;2.65;;;0.77;;
75854;SDS011;64502;59.976;30.316;2023-06-10T13:15:05;1.90;;;0.73;;
75854;SDS011;64502;59.976;30.316;2023-06-10T13:17:31;2.80;;;1.13;;
75854;SDS011;64502;59.976;30.316;2023-06-10T13:19:59;1.55;;;0.80;;
75854;SDS011;64502;59.976;30.316;2023-06-10T13:22:25;1.45;;;0.75;;
75854;SDS011;64502;59.976;30.316;2023-06-10T13:24:51;1.25;;;0.68;;
75854;SDS011;64502;59.976;30.316;2023-06-10T13:27:17;1.92;;;1.00;;
75854;SDS011;64502;59.976;30.316;2023-06-10T13:29:42;2.15;;;1.55;;
75854;SDS011;64502;59.976;30.316;2023-06-10T13:32:08;2.40;;;0.88;;
75854;SDS011;64502;59.976;30.316;2023-06-10T13:34:33;2.22;;;1.02;;
75854;SDS011;64502;59.976;30.316;2023-06-10T13:36:59;2.03;;;1.08;;
75854;SDS011;64502;59.976;30.316;2023-06-10T13:39:24;3.45;;;1.83;;
75854;SDS011;64502;59.976;30.316;2023-06-10T13:41:49;3.05;;;2.50;;
75854;SDS011;64502;59.976;30.316;2023-06-10T13:44:17;2.67;;;2.15;;
75854;SDS011;64502;59.976;30.316;2023-06-10T13:46:42;3.30;;;3.00;;
75854;SDS011;64502;59.976;30.316;2023-06-10T13:49:07;2.55;;;1.60;;
75854;SDS011;64502;59.976;30.316;2023-06-10T13:51:34;3.08;;;2.80;;
75854;SDS011;64502;59.976;30.316;2023-06-10T13:53:59;3.40;;;1.52;;
75854;SDS011;64502;59.976;30.316;2023-06-10T13:56:24;1.63;;;1.30;;
75854;SDS011;64502;59.976;30.316;2023-06-10T13:58:50;2.40;;;2.20;;
75854;SDS011;64502;59.976;30.316;2023-06-10T14:01:15;4.15;;;2.47;;
75854;SDS011;64502;59.976;30.316;2023-06-10T14:03:41;3.15;;;1.60;;
75854;SDS011;64502;59.976;30.316;2023-06-10T14:06:06;3.83;;;2.00;;
75854;SDS011;64502;59.976;30.316;2023-06-10T14:08:32;6.50;;;2.00;;
75854;SDS011;64502;59.976;30.316;2023-06-10T14:10:58;3.45;;;1.75;;
75854;SDS011;64502;59.976;30.316;2023-06-10T14:13:23;2.33;;;1.60;;
75854;SDS011;64502;59.976;30.316;2023-06-10T14:15:49;1.55;;;1.10;;
75854;SDS011;64502;59.976;30.316;2023-06-10T14:18:14;2.38;;;1.52;;
75854;SDS011;64502;59.976;30.316;2023-06-10T14:20:40;1.73;;;1.35;;
75854;SDS011;64502;59.976;30.316;2023-06-10T14:23:05;2.20;;;1.35;;
75854;SDS011;64502;59.976;30.316;2023-06-10T14:25:31;3.95;;;1.45;;
75854;SDS011;64502;59.976;30.316;2023-06-10T14:27:57;4.78;;;2.72;;
75854;SDS011;64502;59.976;30.316;2023-06-10T14:30:23;4.95;;;2.13;;
75854;SDS011;64502;59.976;30.316;2023-06-10T14:32:48;2.88;;;2.60;;
75854;SDS011;64502;59.976;30.316;2023-06-10T14:35:14;2.63;;;2.40;;
75854;SDS011;64502;59.976;30.316;2023-06-10T14:37:39;3.50;;;1.70;;
75854;SDS011;64502;59.976;30.316;2023-06-10T14:40:05;5.38;;;2.10;;
75854;SDS011;64502;59.976;30.316;2023-06-10T14:42:31;2.72;;;2.10;;
75854;SDS011;64502;59.976;30.316;2023-06-10T14:44:57;4.63;;;2.03;;
75854;SDS011;64502;59.976;30.316;2023-06-10T14:47:23;2.97;;;1.40;;
75854;SDS011;64502;59.976;30.316;2023-06-10T14:49:48;1.85;;;1.42;;
75854;SDS011;64502;59.976;30.316;2023-06-10T14:52:14;3.47;;;1.73;;
75854;SDS011;64502;59.976;30.316;2023-06-10T14:54:39;1.85;;;1.45;;
75854;SDS011;64502;59.976;30.316;2023-06-10T14:57:05;4.43;;;2.08;;
75854;SDS011;64502;59.976;30.316;2023-06-10T14:59:31;2.45;;;1.38;;
75854;SDS011;64502;59.976;30.316;2023-06-10T15:01:56;3.35;;;1.70;;
75854;SDS011;64502;59.976;30.316;2023-06-10T15:04:22;2.05;;;1.30;;